createdAt,value
2018-08-20T00:00:51.401Z,98348.69
2018-08-20T00:05:59.203Z,98353.94
2018-08-20T00:10:55.501Z,98360.84
2018-08-20T00:15:48.415Z,98339.61
2018-08-20T00:20:41.388Z,98336.42
2018-08-20T00:25:34.470Z,98327.09
2018-08-20T00:30:27.402Z,98326.70
2018-08-20T00:35:20.530Z,98325.61
2018-08-20T00:40:13.486Z,98319.58
2018-08-20T00:45:06.638Z,98315.01
2018-08-20T00:49:59.635Z,98306.20
2018-08-20T00:54:52.681Z,98312.25
2018-08-20T00:59:45.632Z,98304.08
2018-08-20T01:04:38.695Z,98310.04
2018-08-20T01:09:31.597Z,98305.02
2018-08-20T01:14:24.713Z,98303.61
2018-08-20T01:19:18.042Z,98299.63
2018-08-20T01:24:11.689Z,98307.99
2018-08-20T01:29:04.803Z,98306.70
2018-08-20T01:33:57.725Z,98305.06
2018-08-20T01:38:50.693Z,98313.47
2018-08-20T01:43:43.668Z,98299.66
2018-08-20T01:48:36.620Z,98296.57
2018-08-20T01:53:29.770Z,98288.97
2018-08-20T01:58:22.714Z,98289.55
2018-08-20T02:03:15.749Z,98290.45
2018-08-20T02:08:08.850Z,98286.98
2018-08-20T02:13:01.800Z,98285.69
2018-08-20T02:17:55.448Z,98281.13
2018-08-20T02:22:48.532Z,98287.89
2018-08-20T02:27:41.542Z,98294.14
2018-08-20T02:32:34.830Z,98301.34
2018-08-20T02:37:31.856Z,98304.53
2018-08-20T02:42:24.938Z,98311.16
2018-08-20T02:47:17.965Z,98321.75
2018-08-20T02:52:10.907Z,98320.06
2018-08-20T02:57:03.931Z,98324.66
2018-08-20T03:01:57.063Z,98329.30
2018-08-20T03:06:50.016Z,98329.95
2018-08-20T03:11:43.111Z,98332.13
2018-08-20T03:16:36.622Z,98329.15
2018-08-20T03:21:29.813Z,98324.41
2018-08-20T03:26:22.789Z,98329.88
2018-08-20T03:31:15.790Z,98337.95
2018-08-20T03:36:08.905Z,98338.74
2018-08-20T03:41:01.985Z,98335.61
2018-08-20T03:45:55.134Z,98330.30
2018-08-20T03:50:48.189Z,98331.59
2018-08-20T03:55:41.181Z,98328.25
2018-08-20T04:00:34.353Z,98326.11
2018-08-20T04:05:27.419Z,98329.88
2018-08-20T04:10:20.382Z,98331.63
2018-08-20T04:15:13.281Z,98333.20
2018-08-20T04:20:07.187Z,98341.38
2018-08-20T04:25:00.311Z,98348.86
2018-08-20T04:29:54.147Z,98353.55
2018-08-20T04:34:47.117Z,98355.52
2018-08-20T04:39:41.115Z,98365.36
2018-08-20T04:44:35.740Z,98361.91
2018-08-20T04:49:28.809Z,98359.73
2018-08-20T04:54:21.802Z,98362.16
2018-08-20T04:59:14.838Z,98366.99
2018-08-20T05:04:07.938Z,98365.09
2018-08-20T05:09:01.613Z,98372.35
2018-08-20T05:13:54.998Z,98369.73
2018-08-20T05:18:47.983Z,98375.10
2018-08-20T05:23:40.951Z,98380.16
2018-08-20T05:28:33.950Z,98372.55
2018-08-20T05:33:26.929Z,98369.77
2018-08-20T05:38:20.425Z,98373.90
2018-08-20T05:43:13.415Z,98373.80
2018-08-20T05:48:06.633Z,98376.41
2018-08-20T05:52:59.675Z,98381.56
2018-08-20T05:57:53.477Z,98384.41
2018-08-20T06:02:46.963Z,98375.48
2018-08-20T06:07:40.199Z,98385.37
2018-08-20T06:12:33.571Z,98391.24
2018-08-20T06:17:26.608Z,98393.09
2018-08-20T06:22:19.580Z,98391.59
2018-08-20T06:27:12.736Z,98392.03
2018-08-20T06:32:06.096Z,98384.96
2018-08-20T06:36:59.212Z,98389.39
2018-08-20T06:41:52.302Z,98381.20
2018-08-20T06:46:45.339Z,98384.70
2018-08-20T06:51:38.837Z,98384.24
2018-08-20T06:56:31.830Z,98384.73
2018-08-20T07:01:25.125Z,98386.53
2018-08-20T07:06:19.248Z,98399.42
2018-08-20T07:11:12.249Z,98398.08
2018-08-20T07:16:06.552Z,98402.44
2018-08-20T07:20:59.545Z,98390.14
2018-08-20T07:25:53.197Z,98387.22
2018-08-20T07:30:46.362Z,98394.51
2018-08-20T07:35:39.601Z,98398.91
2018-08-20T07:40:33.159Z,98389.45
2018-08-20T07:45:26.153Z,98391.52
2018-08-20T07:50:19.152Z,98391.03
2018-08-20T07:55:12.122Z,98389.52
2018-08-20T08:00:07.354Z,98394.52
2018-08-20T08:05:00.454Z,98405.22
2018-08-20T08:09:53.497Z,98387.36
2018-08-20T08:14:47.460Z,98391.66
2018-08-20T08:19:40.754Z,98368.42
2018-08-20T08:24:33.666Z,98369.09
2018-08-20T08:29:26.869Z,98369.77
2018-08-20T08:34:19.852Z,98364.38
2018-08-20T08:39:13.023Z,98370.31
2018-08-20T08:44:06.250Z,98365.95
2018-08-20T08:48:59.302Z,98361.33
2018-08-20T08:53:52.461Z,98367.97
2018-08-20T08:58:45.500Z,98364.88
2018-08-20T09:03:38.628Z,98354.17
2018-08-20T09:08:32.522Z,98349.57
2018-08-20T09:13:28.609Z,98355.72
2018-08-20T09:18:21.663Z,98352.89
2018-08-20T09:23:14.820Z,98347.37
2018-08-20T09:28:07.890Z,98357.80
2018-08-20T09:33:00.926Z,98332.33
2018-08-20T09:37:54.126Z,98331.67
2018-08-20T09:42:47.064Z,98332.95
2018-08-20T09:47:40.940Z,98320.59
2018-08-20T09:52:33.994Z,98322.84
2018-08-20T09:57:27.056Z,98328.50
2018-08-20T10:02:20.019Z,98319.75
2018-08-20T10:07:13.533Z,98322.96
2018-08-20T10:12:06.680Z,98313.40
2018-08-20T10:16:59.841Z,98311.41
2018-08-20T10:21:53.945Z,98311.30
2018-08-20T10:26:47.444Z,98299.84
2018-08-20T10:31:40.438Z,98291.08
2018-08-20T10:36:33.808Z,98292.97
2018-08-20T10:41:26.785Z,98290.33
2018-08-20T10:46:24.239Z,98294.72
2018-08-20T10:51:17.246Z,98277.24
2018-08-20T10:56:10.255Z,98289.92
2018-08-20T11:01:03.482Z,98275.73
2018-08-20T11:05:56.535Z,98273.38
2018-08-20T11:10:49.669Z,98287.03
2018-08-20T11:15:42.676Z,98287.66
2018-08-20T11:20:35.647Z,98279.89
2018-08-20T11:25:28.740Z,98279.24
2018-08-20T11:30:22.129Z,98276.77
2018-08-20T11:35:15.077Z,98275.48
2018-08-20T11:40:08.685Z,98265.08
2018-08-20T11:45:01.851Z,98266.16
2018-08-20T11:49:54.885Z,98264.55
2018-08-20T11:54:47.894Z,98260.07
2018-08-20T11:59:40.843Z,98255.91
2018-08-20T12:04:33.795Z,98243.77
2018-08-20T12:09:26.804Z,98245.77
2018-08-20T12:14:19.838Z,98248.53
2018-08-20T12:19:12.854Z,98257.80
2018-08-20T12:24:06.532Z,98243.66
2018-08-20T12:29:00.112Z,98238.81
2018-08-20T12:33:53.111Z,98238.28
2018-08-20T12:38:46.117Z,98235.88
2018-08-20T12:43:39.854Z,98231.66
2018-08-20T12:48:35.861Z,98228.62
2018-08-20T12:53:28.911Z,98227.31
2018-08-20T12:58:22.121Z,98228.87
2018-08-20T13:03:15.127Z,98216.16
2018-08-20T13:08:10.199Z,98202.59
2018-08-20T13:13:04.087Z,98195.09
2018-08-20T13:17:57.233Z,98187.89
2018-08-20T13:22:50.367Z,98184.94
2018-08-20T13:27:43.436Z,98185.53
2018-08-20T13:32:36.466Z,98193.31
2018-08-20T13:37:30.096Z,98198.85
2018-08-20T13:42:23.098Z,98190.33
2018-08-20T13:47:16.125Z,98182.42
2018-08-20T13:52:09.100Z,98171.82
2018-08-20T13:57:02.110Z,98179.61
2018-08-20T14:01:55.144Z,98174.14
2018-08-20T14:06:48.108Z,98174.83
2018-08-20T14:11:41.172Z,98177.81
2018-08-20T14:16:34.200Z,98180.42
2018-08-20T14:21:27.156Z,98179.28
2018-08-20T14:26:20.312Z,98170.86
2018-08-20T14:31:13.349Z,98169.77
2018-08-20T14:36:06.940Z,98166.51
2018-08-20T14:41:00.984Z,98183.00
2018-08-20T14:45:59.557Z,98172.67
2018-08-20T14:50:52.616Z,98167.86
2018-08-20T14:55:45.760Z,98162.69
2018-08-20T15:00:38.838Z,98170.80
2018-08-20T15:05:31.936Z,98170.35
2018-08-20T15:10:25.214Z,98174.07
2018-08-20T15:15:18.404Z,98171.14
2018-08-20T15:20:11.368Z,98174.09
2018-08-20T15:25:04.714Z,98182.44
2018-08-20T15:29:57.651Z,98175.24
2018-08-20T15:34:50.664Z,98179.90
2018-08-20T15:39:43.590Z,98177.34
2018-08-20T15:44:37.594Z,98181.27
2018-08-20T15:49:30.655Z,98182.42
2018-08-20T15:54:23.631Z,98182.74
2018-08-20T15:59:16.716Z,98171.27
2018-08-20T16:04:09.768Z,98172.63
2018-08-20T16:09:03.328Z,98170.66
2018-08-20T16:13:56.379Z,98182.16
2018-08-20T16:18:52.050Z,98186.92
2018-08-20T16:23:51.608Z,98184.51
2018-08-20T16:28:44.615Z,98195.98
2018-08-20T16:33:37.635Z,98195.31
2018-08-20T16:38:30.727Z,98203.05
2018-08-20T16:43:23.814Z,98208.89
2018-08-20T16:48:17.443Z,98200.17
2018-08-20T16:53:10.462Z,98198.31
2018-08-20T16:58:04.408Z,98211.22
2018-08-20T17:02:57.722Z,98209.66
2018-08-20T17:07:50.851Z,98215.23
2018-08-20T17:12:43.871Z,98210.63
2018-08-20T17:17:37.204Z,98220.72
2018-08-20T17:22:30.255Z,98222.12
2018-08-20T17:27:23.359Z,98231.77
2018-08-20T17:32:16.396Z,98231.22
2018-08-20T17:37:09.805Z,98228.45
2018-08-20T17:42:02.933Z,98241.37
2018-08-20T17:46:56.028Z,98240.80
2018-08-20T17:51:49.725Z,98252.64
2018-08-20T17:56:43.331Z,98256.05
2018-08-20T18:01:37.514Z,98265.92
2018-08-20T18:06:44.845Z,98266.48
2018-08-20T18:11:42.361Z,98280.92
2018-08-20T18:16:35.326Z,98280.64
2018-08-20T18:21:28.379Z,98286.08
2018-08-20T18:27:53.976Z,98299.31
2018-08-20T18:32:47.014Z,98305.77
2018-08-20T18:37:50.581Z,98311.58
2018-08-20T18:42:46.968Z,98313.17
2018-08-20T18:47:40.117Z,98313.23
2018-08-20T18:52:33.272Z,98318.61
2018-08-20T18:57:29.049Z,98317.66
2018-08-20T19:02:33.988Z,98324.27
2018-08-20T19:07:27.142Z,98324.41
2018-08-20T19:12:20.251Z,98334.48
2018-08-20T19:17:18.194Z,98338.99
2018-08-20T19:22:17.148Z,98339.97
2018-08-20T19:27:11.045Z,98334.89
2018-08-20T19:32:04.044Z,98329.73
2018-08-20T19:36:57.215Z,98327.33
2018-08-20T19:41:50.362Z,98323.14
2018-08-20T19:46:43.410Z,98331.20
2018-08-20T19:51:38.293Z,98327.84
2018-08-20T19:56:31.266Z,98327.84
2018-08-20T20:01:25.314Z,98328.93
2018-08-20T20:06:18.424Z,98337.41
2018-08-20T20:11:19.281Z,98337.50
2018-08-20T20:16:12.302Z,98348.88
2018-08-20T20:21:05.396Z,98349.59
2018-08-20T20:25:58.321Z,98350.38
2018-08-20T20:30:51.379Z,98356.82
2018-08-20T20:35:45.336Z,98352.86
2018-08-20T20:40:38.380Z,98351.08
2018-08-20T20:45:31.362Z,98348.50
2018-08-20T20:50:27.009Z,98344.33
2018-08-20T20:55:20.140Z,98344.36
2018-08-20T21:00:13.089Z,98330.80
2018-08-20T21:05:09.864Z,98329.90
2018-08-20T21:10:02.998Z,98335.16
2018-08-20T21:14:55.987Z,98336.05
2018-08-20T21:19:48.977Z,98335.16
2018-08-20T21:24:42.023Z,98340.72
2018-08-20T21:29:34.972Z,98340.69
2018-08-20T21:34:31.372Z,98341.41
2018-08-20T21:39:24.427Z,98337.78
2018-08-20T21:44:17.442Z,98335.33
2018-08-20T21:49:11.057Z,98336.28
2018-08-20T21:54:04.207Z,98334.11
2018-08-20T21:58:57.216Z,98330.73
2018-08-20T22:03:50.278Z,98333.30
2018-08-20T22:08:43.395Z,98336.61
2018-08-20T22:13:36.414Z,98327.33
2018-08-20T22:18:34.122Z,98324.81
2018-08-20T22:23:39.082Z,98331.94
2018-08-20T22:28:20.159Z,98332.43
2018-08-20T22:33:13.112Z,98320.70
2018-08-20T22:38:06.697Z,98316.02
2018-08-20T22:42:59.701Z,98316.45
2018-08-20T22:47:52.818Z,98324.63
2018-08-20T22:52:47.447Z,98314.68
2018-08-20T22:57:49.354Z,98320.09
2018-08-20T23:02:42.369Z,98329.55
2018-08-20T23:07:35.370Z,98323.58
2018-08-20T23:12:32.860Z,98325.52
2018-08-20T23:17:25.826Z,98326.19
2018-08-20T23:22:18.960Z,98343.47
2018-08-20T23:27:11.947Z,98342.16
2018-08-20T23:32:04.999Z,98339.83
2018-08-20T23:36:57.934Z,98338.88
2018-08-20T23:41:51.907Z,98329.70
2018-08-20T23:46:46.642Z,98327.73
2018-08-20T23:51:39.752Z,98324.95
2018-08-20T23:56:32.804Z,98325.75
